sensor_id;sensor_type;location;lat;lon;timestamp;temperature;humidity
11067;DHT22;29763;50.904;5.530;2023-07-09T00:02:00;20.90;99.90
11067;DHT22;29763;50.904;5.530;2023-07-09T00:04:33;20.80;99.90
11067;DHT22;29763;50.904;5.530;2023-07-09T00:07:02;20.80;99.90
11067;DHT22;29763;50.904;5.530;2023-07-09T00:09:33;20.80;99.90
11067;DHT22;29763;50.904;5.530;2023-07-09T00:12:15;20.80;99.90
11067;DHT22;29763;50.904;5.530;2023-07-09T00:14:42;20.80;99.90
11067;DHT22;29763;50.904;5.530;2023-07-09T00:17:19;20.80;99.90
11067;DHT22;29763;50.904;5.530;2023-07-09T00:20:02;20.80;99.90
11067;DHT22;29763;50.904;5.530;2023-07-09T00:22:31;20.90;99.90
11067;DHT22;29763;50.904;5.530;2023-07-09T00:25:01;20.80;99.90
11067;DHT22;29763;50.904;5.530;2023-07-09T00:27:28;20.80;99.90
11067;DHT22;29763;50.904;5.530;2023-07-09T00:30:01;20.90;99.90
11067;DHT22;29763;50.904;5.530;2023-07-09T00:32:32;20.90;99.90
11067;DHT22;29763;50.904;5.530;2023-07-09T00:34:58;20.90;99.90
11067;DHT22;29763;50.904;5.530;2023-07-09T00:37:41;20.80;99.90
11067;DHT22;29763;50.904;5.530;2023-07-09T00:40:20;20.80;99.90
11067;DHT22;29763;50.904;5.530;2023-07-09T00:43:18;20.80;99.90
11067;DHT22;29763;50.904;5.530;2023-07-09T00:46:10;20.90;99.90
11067;DHT22;29763;50.904;5.530;2023-07-09T00:48:43;20.90;99.90
11067;DHT22;29763;50.904;5.530;2023-07-09T00:51:16;20.90;99.90
11067;DHT22;29763;50.904;5.530;2023-07-09T00:53:46;20.80;99.90
11067;DHT22;29763;50.904;5.530;2023-07-09T00:56:27;20.80;99.90
11067;DHT22;29763;50.904;5.530;2023-07-09T00:59:08;20.80;99.90
11067;DHT22;29763;50.904;5.530;2023-07-09T01:01:46;20.80;99.90
11067;DHT22;29763;50.904;5.530;2023-07-09T01:04:22;20.80;99.90
11067;DHT22;29763;50.904;5.530;2023-07-09T01:06:53;20.80;99.90
11067;DHT22;29763;50.904;5.530;2023-07-09T01:09:21;20.80;99.90
11067;DHT22;29763;50.904;5.530;2023-07-09T01:11:48;20.80;99.90
11067;DHT22;29763;50.904;5.530;2023-07-09T01:14:19;20.90;99.90
11067;DHT22;29763;50.904;5.530;2023-07-09T01:16:55;20.90;99.90
11067;DHT22;29763;50.904;5.530;2023-07-09T01:19:28;20.90;99.90
11067;DHT22;29763;50.904;5.530;2023-07-09T01:22:04;20.80;99.90
11067;DHT22;29763;50.904;5.530;2023-07-09T01:25:00;20.80;99.90
11067;DHT22;29763;50.904;5.530;2023-07-09T01:27:37;20.70;99.90
11067;DHT22;29763;50.904;5.530;2023-07-09T01:30:40;20.70;99.90
11067;DHT22;29763;50.904;5.530;2023-07-09T01:33:07;20.70;99.90
11067;DHT22;29763;50.904;5.530;2023-07-09T01:35:40;20.70;99.90
11067;DHT22;29763;50.904;5.530;2023-07-09T01:38:08;20.70;99.90
11067;DHT22;29763;50.904;5.530;2023-07-09T01:40:46;20.70;99.90
11067;DHT22;29763;50.904;5.530;2023-07-09T01:43:27;20.70;99.90
11067;DHT22;29763;50.904;5.530;2023-07-09T01:46:15;20.70;99.90
11067;DHT22;29763;50.904;5.530;2023-07-09T01:48:48;20.70;99.90
11067;DHT22;29763;50.904;5.530;2023-07-09T01:51:18;20.60;99.90
11067;DHT22;29763;50.904;5.530;2023-07-09T01:54:01;20.60;99.90
11067;DHT22;29763;50.904;5.530;2023-07-09T01:56:31;20.60;99.90
11067;DHT22;29763;50.904;5.530;2023-07-09T01:59:21;20.60;99.90
11067;DHT22;29763;50.904;5.530;2023-07-09T02:01:53;20.60;99.90
11067;DHT22;29763;50.904;5.530;2023-07-09T02:04:36;20.60;99.90
11067;DHT22;29763;50.904;5.530;2023-07-09T02:07:13;20.60;99.90
11067;DHT22;29763;50.904;5.530;2023-07-09T02:10:13;20.60;99.90
11067;DHT22;29763;50.904;5.530;2023-07-09T02:12:48;20.60;99.90
11067;DHT22;29763;50.904;5.530;2023-07-09T02:15:35;20.60;99.90
11067;DHT22;29763;50.904;5.530;2023-07-09T02:18:04;20.60;99.90
11067;DHT22;29763;50.904;5.530;2023-07-09T02:20:50;20.60;99.90
11067;DHT22;29763;50.904;5.530;2023-07-09T02:23:43;20.60;99.90
11067;DHT22;29763;50.904;5.530;2023-07-09T02:26:21;20.60;99.90
11067;DHT22;29763;50.904;5.530;2023-07-09T02:29:07;20.60;99.90
11067;DHT22;29763;50.904;5.530;2023-07-09T02:31:55;20.60;99.90
11067;DHT22;29763;50.904;5.530;2023-07-09T02:34:31;20.60;99.90
11067;DHT22;29763;50.904;5.530;2023-07-09T02:37:04;20.60;99.90
11067;DHT22;29763;50.904;5.530;2023-07-09T02:39:40;20.60;99.90
11067;DHT22;29763;50.904;5.530;2023-07-09T02:42:15;20.60;99.90
11067;DHT22;29763;50.904;5.530;2023-07-09T02:44:42;20.60;99.90
11067;DHT22;29763;50.904;5.530;2023-07-09T02:47:17;20.60;99.90
11067;DHT22;29763;50.904;5.530;2023-07-09T02:49:47;20.50;99.90
11067;DHT22;29763;50.904;5.530;2023-07-09T02:52:14;20.50;99.90
11067;DHT22;29763;50.904;5.530;2023-07-09T02:54:53;20.40;99.90
11067;DHT22;29763;50.904;5.530;2023-07-09T02:57:23;20.40;99.90
11067;DHT22;29763;50.904;5.530;2023-07-09T02:59:50;20.40;99.90
11067;DHT22;29763;50.904;5.530;2023-07-09T03:02:19;20.40;99.90
11067;DHT22;29763;50.904;5.530;2023-07-09T03:04:51;20.40;99.90
11067;DHT22;29763;50.904;5.530;2023-07-09T03:07:48;20.30;99.90
11067;DHT22;29763;50.904;5.530;2023-07-09T03:10:28;20.30;99.90
11067;DHT22;29763;50.904;5.530;2023-07-09T03:12:54;20.20;99.90
11067;DHT22;29763;50.904;5.530;2023-07-09T03:15:27;20.20;99.90
11067;DHT22;29763;50.904;5.530;2023-07-09T03:18:00;20.10;99.90
11067;DHT22;29763;50.904;5.530;2023-07-09T03:20:30;20.10;99.90
11067;DHT22;29763;50.904;5.530;2023-07-09T03:23:04;20.10;99.90
11067;DHT22;29763;50.904;5.530;2023-07-09T03:25:31;20.10;99.90
11067;DHT22;29763;50.904;5.530;2023-07-09T03:28:10;20.00;99.90
11067;DHT22;29763;50.904;5.530;2023-07-09T03:30:47;20.00;99.90
11067;DHT22;29763;50.904;5.530;2023-07-09T03:33:16;20.00;99.90
11067;DHT22;29763;50.904;5.530;2023-07-09T03:35:45;20.00;99.90
11067;DHT22;29763;50.904;5.530;2023-07-09T03:38:19;20.00;99.90
11067;DHT22;29763;50.904;5.530;2023-07-09T03:40:56;19.90;99.90
11067;DHT22;29763;50.904;5.530;2023-07-09T03:43:38;19.90;99.90
11067;DHT22;29763;50.904;5.530;2023-07-09T03:46:07;19.90;99.90
11067;DHT22;29763;50.904;5.530;2023-07-09T03:48:35;20.30;99.90
11067;DHT22;29763;50.904;5.530;2023-07-09T03:51:01;20.10;99.90
11067;DHT22;29763;50.904;5.530;2023-07-09T03:53:40;19.90;99.90
11067;DHT22;29763;50.904;5.530;2023-07-09T03:56:12;19.80;99.90
11067;DHT22;29763;50.904;5.530;2023-07-09T03:58:38;19.60;99.90
11067;DHT22;29763;50.904;5.530;2023-07-09T04:01:13;19.60;99.90
11067;DHT22;29763;50.904;5.530;2023-07-09T04:03:57;19.60;99.90
11067;DHT22;29763;50.904;5.530;2023-07-09T04:06:34;19.60;99.90
11067;DHT22;29763;50.904;5.530;2023-07-09T04:09:04;19.60;99.90
11067;DHT22;29763;50.904;5.530;2023-07-09T04:11:32;19.60;99.90
11067;DHT22;29763;50.904;5.530;2023-07-09T04:13:59;19.60;99.90
11067;DHT22;29763;50.904;5.530;2023-07-09T04:16:26;19.70;99.90
11067;DHT22;29763;50.904;5.530;2023-07-09T04:19:01;19.70;99.90
11067;DHT22;29763;50.904;5.530;2023-07-09T04:21:27;19.70;99.90
11067;DHT22;29763;50.904;5.530;2023-07-09T04:24:01;19.80;99.90
11067;DHT22;29763;50.904;5.530;2023-07-09T04:26:32;19.80;99.90
11067;DHT22;29763;50.904;5.530;2023-07-09T04:29:03;19.80;99.90
11067;DHT22;29763;50.904;5.530;2023-07-09T04:31:31;19.80;99.90
11067;DHT22;29763;50.904;5.530;2023-07-09T04:34:02;19.80;99.90
11067;DHT22;29763;50.904;5.530;2023-07-09T04:36:37;19.90;99.90
11067;DHT22;29763;50.904;5.530;2023-07-09T04:39:03;19.90;99.90
11067;DHT22;29763;50.904;5.530;2023-07-09T04:41:34;19.90;99.90
11067;DHT22;29763;50.904;5.530;2023-07-09T04:44:04;19.90;99.90
11067;DHT22;29763;50.904;5.530;2023-07-09T04:46:35;19.90;99.90
11067;DHT22;29763;50.904;5.530;2023-07-09T04:49:07;20.10;99.90
11067;DHT22;29763;50.904;5.530;2023-07-09T04:51:38;20.10;99.90
11067;DHT22;29763;50.904;5.530;2023-07-09T04:54:19;20.20;99.90
11067;DHT22;29763;50.904;5.530;2023-07-09T04:56:49;20.30;99.90
11067;DHT22;29763;50.904;5.530;2023-07-09T04:59:19;20.40;99.90
11067;DHT22;29763;50.904;5.530;2023-07-09T05:02:07;20.60;99.90
11067;DHT22;29763;50.904;5.530;2023-07-09T05:04:34;20.70;99.90
11067;DHT22;29763;50.904;5.530;2023-07-09T05:07:03;20.80;99.90
11067;DHT22;29763;50.904;5.530;2023-07-09T05:09:37;21.00;99.90
11067;DHT22;29763;50.904;5.530;2023-07-09T05:12:07;21.10;99.90
11067;DHT22;29763;50.904;5.530;2023-07-09T05:14:36;21.20;99.90
11067;DHT22;29763;50.904;5.530;2023-07-09T05:17:02;21.30;99.90
11067;DHT22;29763;50.904;5.530;2023-07-09T05:19:35;21.50;99.90
11067;DHT22;29763;50.904;5.530;2023-07-09T05:22:12;21.70;99.90
11067;DHT22;29763;50.904;5.530;2023-07-09T05:24:38;22.00;99.90
11067;DHT22;29763;50.904;5.530;2023-07-09T05:27:06;22.10;99.90
11067;DHT22;29763;50.904;5.530;2023-07-09T05:29:39;22.40;99.90
11067;DHT22;29763;50.904;5.530;2023-07-09T05:32:10;22.50;99.90
11067;DHT22;29763;50.904;5.530;2023-07-09T05:34:39;22.70;99.90
11067;DHT22;29763;50.904;5.530;2023-07-09T05:37:05;22.80;99.90
11067;DHT22;29763;50.904;5.530;2023-07-09T05:39:31;22.90;99.90
11067;DHT22;29763;50.904;5.530;2023-07-09T05:41:57;23.10;99.90
11067;DHT22;29763;50.904;5.530;2023-07-09T05:44:23;23.20;99.90
11067;DHT22;29763;50.904;5.530;2023-07-09T05:46:54;23.40;99.90
11067;DHT22;29763;50.904;5.530;2023-07-09T05:49:37;23.60;99.90
11067;DHT22;29763;50.904;5.530;2023-07-09T05:52:21;24.00;99.90
11067;DHT22;29763;50.904;5.530;2023-07-09T05:55:11;24.10;99.90
11067;DHT22;29763;50.904;5.530;2023-07-09T05:57:40;24.50;99.90
11067;DHT22;29763;50.904;5.530;2023-07-09T06:00:11;24.80;99.90
11067;DHT22;29763;50.904;5.530;2023-07-09T06:02:49;25.10;99.90
11067;DHT22;29763;50.904;5.530;2023-07-09T06:05:18;25.40;99.90
11067;DHT22;29763;50.904;5.530;2023-07-09T06:07:45;25.70;99.90
11067;DHT22;29763;50.904;5.530;2023-07-09T06:10:11;25.70;99.90
11067;DHT22;29763;50.904;5.530;2023-07-09T06:12:37;25.90;99.90
11067;DHT22;29763;50.904;5.530;2023-07-09T06:15:13;26.20;99.90
11067;DHT22;29763;50.904;5.530;2023-07-09T06:17:46;26.50;99.90
11067;DHT22;29763;50.904;5.530;2023-07-09T06:20:18;26.80;99.90
11067;DHT22;29763;50.904;5.530;2023-07-09T06:22:44;27.00;99.90
11067;DHT22;29763;50.904;5.530;2023-07-09T06:25:09;27.30;99.90
11067;DHT22;29763;50.904;5.530;2023-07-09T06:27:38;27.50;99.90
11067;DHT22;29763;50.904;5.530;2023-07-09T06:30:07;27.80;99.90
11067;DHT22;29763;50.904;5.530;2023-07-09T06:32:34;27.70;99.90
11067;DHT22;29763;50.904;5.530;2023-07-09T06:35:03;28.00;99.90
11067;DHT22;29763;50.904;5.530;2023-07-09T06:37:39;28.20;99.90
11067;DHT22;29763;50.904;5.530;2023-07-09T06:40:05;28.40;99.90
11067;DHT22;29763;50.904;5.530;2023-07-09T06:43:02;28.50;99.90
11067;DHT22;29763;50.904;5.530;2023-07-09T06:45:30;28.50;99.90
11067;DHT22;29763;50.904;5.530;2023-07-09T06:47:59;28.70;99.90
11067;DHT22;29763;50.904;5.530;2023-07-09T06:50:25;29.00;99.90
11067;DHT22;29763;50.904;5.530;2023-07-09T06:52:51;29.20;99.90
11067;DHT22;29763;50.904;5.530;2023-07-09T06:55:39;29.10;99.90
11067;DHT22;29763;50.904;5.530;2023-07-09T06:58:12;29.50;99.90
11067;DHT22;29763;50.904;5.530;2023-07-09T07:04:38;30.20;99.90
11067;DHT22;29763;50.904;5.530;2023-07-09T07:07:52;30.60;99.90
11067;DHT22;29763;50.904;5.530;2023-07-09T07:10:20;30.80;99.90
11067;DHT22;29763;50.904;5.530;2023-07-09T07:12:59;31.20;99.90
11067;DHT22;29763;50.904;5.530;2023-07-09T07:15:30;31.50;99.90
11067;DHT22;29763;50.904;5.530;2023-07-09T07:17:58;31.80;99.90
11067;DHT22;29763;50.904;5.530;2023-07-09T07:20:24;32.00;99.90
11067;DHT22;29763;50.904;5.530;2023-07-09T07:23:02;32.60;99.90
11067;DHT22;29763;50.904;5.530;2023-07-09T07:25:37;32.80;99.90
11067;DHT22;29763;50.904;5.530;2023-07-09T07:28:21;33.10;99.90
11067;DHT22;29763;50.904;5.530;2023-07-09T07:31:03;33.10;99.90
11067;DHT22;29763;50.904;5.530;2023-07-09T07:33:55;33.50;99.90
11067;DHT22;29763;50.904;5.530;2023-07-09T07:36:32;33.30;99.90
11067;DHT22;29763;50.904;5.530;2023-07-09T07:45:50;34.50;99.90
11067;DHT22;29763;50.904;5.530;2023-07-09T07:48:30;34.50;99.90
11067;DHT22;29763;50.904;5.530;2023-07-09T07:51:10;34.80;99.90
11067;DHT22;29763;50.904;5.530;2023-07-09T07:53:39;35.40;99.90
11067;DHT22;29763;50.904;5.530;2023-07-09T07:56:23;35.90;99.90
11067;DHT22;29763;50.904;5.530;2023-07-09T07:58:58;36.40;99.90
11067;DHT22;29763;50.904;5.530;2023-07-09T08:01:31;36.70;99.90
11067;DHT22;29763;50.904;5.530;2023-07-09T08:04:05;37.10;99.90
11067;DHT22;29763;50.904;5.530;2023-07-09T08:06:55;37.30;99.90
11067;DHT22;29763;50.904;5.530;2023-07-09T08:09:30;37.40;99.00
11067;DHT22;29763;50.904;5.530;2023-07-09T08:11:59;37.60;99.10
11067;DHT22;29763;50.904;5.530;2023-07-09T08:14:36;37.40;99.10
11067;DHT22;29763;50.904;5.530;2023-07-09T08:17:08;37.40;98.50
11067;DHT22;29763;50.904;5.530;2023-07-09T08:19:49;37.80;99.10
11067;DHT22;29763;50.904;5.530;2023-07-09T08:22:19;38.20;98.40
11067;DHT22;29763;50.904;5.530;2023-07-09T08:27:45;39.00;97.90
11067;DHT22;29763;50.904;5.530;2023-07-09T08:30:16;39.30;97.40
11067;DHT22;29763;50.904;5.530;2023-07-09T08:32:51;39.40;96.10
11067;DHT22;29763;50.904;5.530;2023-07-09T08:35:23;39.40;95.70
11067;DHT22;29763;50.904;5.530;2023-07-09T08:37:49;39.60;95.80
11067;DHT22;29763;50.904;5.530;2023-07-09T08:40:20;39.80;95.90
11067;DHT22;29763;50.904;5.530;2023-07-09T08:42:53;40.10;94.20
11067;DHT22;29763;50.904;5.530;2023-07-09T08:48:30;40.40;94.20
11067;DHT22;29763;50.904;5.530;2023-07-09T08:51:36;40.50;93.50
11067;DHT22;29763;50.904;5.530;2023-07-09T08:54:30;40.60;91.80
11067;DHT22;29763;50.904;5.530;2023-07-09T08:57:26;40.50;92.00
11067;DHT22;29763;50.904;5.530;2023-07-09T09:00:02;40.30;90.40
11067;DHT22;29763;50.904;5.530;2023-07-09T09:02:44;40.30;91.40
11067;DHT22;29763;50.904;5.530;2023-07-09T09:05:17;40.40;91.80
11067;DHT22;29763;50.904;5.530;2023-07-09T09:08:14;40.70;91.70
11067;DHT22;29763;50.904;5.530;2023-07-09T09:10:57;40.90;90.80
11067;DHT22;29763;50.904;5.530;2023-07-09T09:13:33;41.10;89.90
11067;DHT22;29763;50.904;5.530;2023-07-09T09:16:50;41.10;90.20
11067;DHT22;29763;50.904;5.530;2023-07-09T09:22:44;41.60;87.30
11067;DHT22;29763;50.904;5.530;2023-07-09T09:27:53;42.40;84.50
11067;DHT22;29763;50.904;5.530;2023-07-09T09:30:22;42.50;83.20
11067;DHT22;29763;50.904;5.530;2023-07-09T09:36:02;42.70;81.80
11067;DHT22;29763;50.904;5.530;2023-07-09T09:39:16;43.00;80.20
11067;DHT22;29763;50.904;5.530;2023-07-09T09:47:26;43.00;78.80
11067;DHT22;29763;50.904;5.530;2023-07-09T09:49:52;43.10;78.80
11067;DHT22;29763;50.904;5.530;2023-07-09T09:52:23;43.20;77.50
11067;DHT22;29763;50.904;5.530;2023-07-09T09:55:02;43.40;76.80
11067;DHT22;29763;50.904;5.530;2023-07-09T09:57:28;43.50;75.60
11067;DHT22;29763;50.904;5.530;2023-07-09T09:59:54;43.50;76.30
11067;DHT22;29763;50.904;5.530;2023-07-09T10:02:24;43.50;75.30
11067;DHT22;29763;50.904;5.530;2023-07-09T10:04:51;43.60;75.00
11067;DHT22;29763;50.904;5.530;2023-07-09T10:07:30;43.60;75.10
11067;DHT22;29763;50.904;5.530;2023-07-09T10:09:57;43.70;74.80
11067;DHT22;29763;50.904;5.530;2023-07-09T10:18:03;43.90;74.20
11067;DHT22;29763;50.904;5.530;2023-07-09T10:20:48;44.10;74.20
11067;DHT22;29763;50.904;5.530;2023-07-09T10:23:39;44.30;73.60
11067;DHT22;29763;50.904;5.530;2023-07-09T10:29:42;44.30;71.00
11067;DHT22;29763;50.904;5.530;2023-07-09T10:40:31;43.80;72.10
11067;DHT22;29763;50.904;5.530;2023-07-09T10:43:00;42.70;72.20
11067;DHT22;29763;50.904;5.530;2023-07-09T10:45:37;42.40;74.50
11067;DHT22;29763;50.904;5.530;2023-07-09T10:48:31;41.90;74.90
11067;DHT22;29763;50.904;5.530;2023-07-09T10:50:54;41.50;75.70
11067;DHT22;29763;50.904;5.530;2023-07-09T10:56:43;41.00;76.90
11067;DHT22;29763;50.904;5.530;2023-07-09T10:59:28;40.80;77.00
11067;DHT22;29763;50.904;5.530;2023-07-09T11:02:15;40.90;78.60
11067;DHT22;29763;50.904;5.530;2023-07-09T11:04:51;41.00;74.90
11067;DHT22;29763;50.904;5.530;2023-07-09T11:10:39;40.90;76.60
11067;DHT22;29763;50.904;5.530;2023-07-09T11:13:14;40.90;76.70
11067;DHT22;29763;50.904;5.530;2023-07-09T11:15:44;40.90;76.70
11067;DHT22;29763;50.904;5.530;2023-07-09T11:18:22;40.50;76.50
11067;DHT22;29763;50.904;5.530;2023-07-09T11:20:58;40.30;76.90
11067;DHT22;29763;50.904;5.530;2023-07-09T11:23:25;40.10;77.40
11067;DHT22;29763;50.904;5.530;2023-07-09T11:26:23;40.20;78.20
11067;DHT22;29763;50.904;5.530;2023-07-09T11:28:56;40.40;78.70
11067;DHT22;29763;50.904;5.530;2023-07-09T11:31:39;40.70;79.10
11067;DHT22;29763;50.904;5.530;2023-07-09T11:41:53;40.30;76.80
11067;DHT22;29763;50.904;5.530;2023-07-09T11:44:31;39.90;78.20
11067;DHT22;29763;50.904;5.530;2023-07-09T11:49:34;39.40;78.80
11067;DHT22;29763;50.904;5.530;2023-07-09T11:52:07;39.40;80.20
11067;DHT22;29763;50.904;5.530;2023-07-09T11:54:37;39.30;81.30
11067;DHT22;29763;50.904;5.530;2023-07-09T11:57:05;39.20;81.60
11067;DHT22;29763;50.904;5.530;2023-07-09T11:59:40;38.70;80.50
11067;DHT22;29763;50.904;5.530;2023-07-09T12:02:15;38.40;80.50
11067;DHT22;29763;50.904;5.530;2023-07-09T12:04:42;38.20;83.50
11067;DHT22;29763;50.904;5.530;2023-07-09T12:07:13;37.90;84.30
11067;DHT22;29763;50.904;5.530;2023-07-09T12:09:42;37.50;84.70
11067;DHT22;29763;50.904;5.530;2023-07-09T12:12:28;37.00;86.20
11067;DHT22;29763;50.904;5.530;2023-07-09T12:14:54;36.40;87.60
11067;DHT22;29763;50.904;5.530;2023-07-09T12:17:26;35.90;88.00
11067;DHT22;29763;50.904;5.530;2023-07-09T12:19:52;35.50;88.90
11067;DHT22;29763;50.904;5.530;2023-07-09T12:22:22;34.80;89.90
11067;DHT22;29763;50.904;5.530;2023-07-09T12:24:49;34.40;90.50
11067;DHT22;29763;50.904;5.530;2023-07-09T12:27:34;33.90;92.00
11067;DHT22;29763;50.904;5.530;2023-07-09T12:30:03;33.70;94.40
11067;DHT22;29763;50.904;5.530;2023-07-09T12:32:29;33.30;96.20
11067;DHT22;29763;50.904;5.530;2023-07-09T12:34:57;33.00;97.90
11067;DHT22;29763;50.904;5.530;2023-07-09T12:37:26;32.70;99.60
11067;DHT22;29763;50.904;5.530;2023-07-09T12:39:53;32.40;99.90
11067;DHT22;29763;50.904;5.530;2023-07-09T12:42:28;32.20;99.90
11067;DHT22;29763;50.904;5.530;2023-07-09T12:44:55;32.00;99.90
11067;DHT22;29763;50.904;5.530;2023-07-09T12:47:24;31.90;99.90
11067;DHT22;29763;50.904;5.530;2023-07-09T12:49:50;31.80;99.90
11067;DHT22;29763;50.904;5.530;2023-07-09T12:52:22;31.80;99.90
11067;DHT22;29763;50.904;5.530;2023-07-09T12:54:58;31.70;99.90
11067;DHT22;29763;50.904;5.530;2023-07-09T12:57:25;31.60;99.90
11067;DHT22;29763;50.904;5.530;2023-07-09T12:59:51;31.40;99.90
11067;DHT22;29763;50.904;5.530;2023-07-09T13:02:24;30.90;99.90
11067;DHT22;29763;50.904;5.530;2023-07-09T13:05:00;30.40;99.90
11067;DHT22;29763;50.904;5.530;2023-07-09T13:07:35;29.90;99.90
11067;DHT22;29763;50.904;5.530;2023-07-09T13:10:19;29.50;99.90
11067;DHT22;29763;50.904;5.530;2023-07-09T13:12:47;29.00;99.90
11067;DHT22;29763;50.904;5.530;2023-07-09T13:18:23;28.40;99.90
11067;DHT22;29763;50.904;5.530;2023-07-09T13:24:16;28.10;99.90
11067;DHT22;29763;50.904;5.530;2023-07-09T13:26:43;27.90;99.90
11067;DHT22;29763;50.904;5.530;2023-07-09T13:29:16;27.70;99.90
11067;DHT22;29763;50.904;5.530;2023-07-09T13:31:44;27.40;99.90
11067;DHT22;29763;50.904;5.530;2023-07-09T13:34:30;27.20;99.90
11067;DHT22;29763;50.904;5.530;2023-07-09T13:36:59;27.00;99.90
11067;DHT22;29763;50.904;5.530;2023-07-09T13:39:25;26.80;99.90
11067;DHT22;29763;50.904;5.530;2023-07-09T13:41:51;26.50;99.90
11067;DHT22;29763;50.904;5.530;2023-07-09T13:44:29;26.30;99.90
11067;DHT22;29763;50.904;5.530;2023-07-09T13:46:56;26.20;99.90
11067;DHT22;29763;50.904;5.530;2023-07-09T13:49:25;26.10;99.90
11067;DHT22;29763;50.904;5.530;2023-07-09T13:51:54;25.90;99.90
11067;DHT22;29763;50.904;5.530;2023-07-09T13:54:24;25.80;99.90
11067;DHT22;29763;50.904;5.530;2023-07-09T13:56:51;25.80;99.90
11067;DHT22;29763;50.904;5.530;2023-07-09T13:59:22;26.00;99.90
11067;DHT22;29763;50.904;5.530;2023-07-09T14:01:51;26.20;99.90
11067;DHT22;29763;50.904;5.530;2023-07-09T14:04:21;26.40;99.90
11067;DHT22;29763;50.904;5.530;2023-07-09T14:06:48;26.50;99.90
11067;DHT22;29763;50.904;5.530;2023-07-09T14:09:14;26.80;99.90
11067;DHT22;29763;50.904;5.530;2023-07-09T14:11:48;27.20;99.90
11067;DHT22;29763;50.904;5.530;2023-07-09T14:14:21;27.60;99.90
11067;DHT22;29763;50.904;5.530;2023-07-09T14:16:47;28.00;99.90
11067;DHT22;29763;50.904;5.530;2023-07-09T14:19:15;28.10;99.90
11067;DHT22;29763;50.904;5.530;2023-07-09T14:21:42;28.40;99.90
11067;DHT22;29763;50.904;5.530;2023-07-09T14:24:33;28.70;99.90
11067;DHT22;29763;50.904;5.530;2023-07-09T14:26:59;28.90;99.90
11067;DHT22;29763;50.904;5.530;2023-07-09T14:29:25;28.80;99.90
11067;DHT22;29763;50.904;5.530;2023-07-09T14:31:51;28.80;99.90
11067;DHT22;29763;50.904;5.530;2023-07-09T14:34:32;28.90;99.90
11067;DHT22;29763;50.904;5.530;2023-07-09T14:37:03;28.90;99.90
11067;DHT22;29763;50.904;5.530;2023-07-09T14:39:29;28.90;99.90
11067;DHT22;29763;50.904;5.530;2023-07-09T14:41:55;28.90;99.90
11067;DHT22;29763;50.904;5.530;2023-07-09T14:44:26;28.90;99.90
11067;DHT22;29763;50.904;5.530;2023-07-09T14:46:54;28.80;99.90
11067;DHT22;29763;50.904;5.530;2023-07-09T14:49:21;28.80;99.90
11067;DHT22;29763;50.904;5.530;2023-07-09T14:51:47;28.70;99.90
11067;DHT22;29763;50.904;5.530;2023-07-09T14:54:29;28.40;99.90
11067;DHT22;29763;50.904;5.530;2023-07-09T14:56:56;28.20;99.90
11067;DHT22;29763;50.904;5.530;2023-07-09T14:59:23;28.10;99.90
11067;DHT22;29763;50.904;5.530;2023-07-09T15:01:49;28.20;99.90
11067;DHT22;29763;50.904;5.530;2023-07-09T15:06:51;28.40;99.90
11067;DHT22;29763;50.904;5.530;2023-07-09T15:09:21;28.60;99.90
11067;DHT22;29763;50.904;5.530;2023-07-09T15:11:55;28.40;99.90
11067;DHT22;29763;50.904;5.530;2023-07-09T15:14:23;28.70;99.90
11067;DHT22;29763;50.904;5.530;2023-07-09T15:16:49;29.10;99.90
11067;DHT22;29763;50.904;5.530;2023-07-09T15:19:20;29.80;99.90
11067;DHT22;29763;50.904;5.530;2023-07-09T15:21:48;30.50;99.90
11067;DHT22;29763;50.904;5.530;2023-07-09T15:24:21;30.60;99.90
11067;DHT22;29763;50.904;5.530;2023-07-09T15:26:54;30.60;99.90
11067;DHT22;29763;50.904;5.530;2023-07-09T15:29:20;30.70;99.90
11067;DHT22;29763;50.904;5.530;2023-07-09T15:31:47;30.90;99.90
11067;DHT22;29763;50.904;5.530;2023-07-09T15:34:13;30.90;99.90
11067;DHT22;29763;50.904;5.530;2023-07-09T15:36:42;30.80;99.90
11067;DHT22;29763;50.904;5.530;2023-07-09T15:39:10;30.70;99.90
11067;DHT22;29763;50.904;5.530;2023-07-09T15:41:36;30.60;99.90
11067;DHT22;29763;50.904;5.530;2023-07-09T15:44:02;30.50;99.90
11067;DHT22;29763;50.904;5.530;2023-07-09T15:46:28;30.70;99.90
11067;DHT22;29763;50.904;5.530;2023-07-09T15:48:54;30.60;99.90
11067;DHT22;29763;50.904;5.530;2023-07-09T15:51:20;30.80;99.90
11067;DHT22;29763;50.904;5.530;2023-07-09T15:53:46;30.80;99.90
11067;DHT22;29763;50.904;5.530;2023-07-09T15:56:24;31.10;99.90
11067;DHT22;29763;50.904;5.530;2023-07-09T15:58:52;31.50;99.90
11067;DHT22;29763;50.904;5.530;2023-07-09T16:01:18;32.00;99.90
11067;DHT22;29763;50.904;5.530;2023-07-09T16:03:49;32.30;99.90
11067;DHT22;29763;50.904;5.530;2023-07-09T16:06:17;32.90;99.90
11067;DHT22;29763;50.904;5.530;2023-07-09T16:08:43;33.60;99.90
11067;DHT22;29763;50.904;5.530;2023-07-09T16:11:21;33.50;99.90
11067;DHT22;29763;50.904;5.530;2023-07-09T16:13:47;34.00;99.90
11067;DHT22;29763;50.904;5.530;2023-07-09T16:16:18;34.10;99.90
11067;DHT22;29763;50.904;5.530;2023-07-09T16:18:45;34.30;99.90
11067;DHT22;29763;50.904;5.530;2023-07-09T16:21:29;34.20;99.90
11067;DHT22;29763;50.904;5.530;2023-07-09T16:23:57;34.30;99.90
11067;DHT22;29763;50.904;5.530;2023-07-09T16:26:24;34.50;99.90
11067;DHT22;29763;50.904;5.530;2023-07-09T16:28:50;34.50;99.90
11067;DHT22;29763;50.904;5.530;2023-07-09T16:31:18;34.50;99.90
11067;DHT22;29763;50.904;5.530;2023-07-09T16:33:44;34.50;99.90
11067;DHT22;29763;50.904;5.530;2023-07-09T16:36:14;34.50;99.90
11067;DHT22;29763;50.904;5.530;2023-07-09T16:38:41;34.50;99.90
11067;DHT22;29763;50.904;5.530;2023-07-09T16:41:10;34.10;99.90
11067;DHT22;29763;50.904;5.530;2023-07-09T16:43:38;34.00;99.90
11067;DHT22;29763;50.904;5.530;2023-07-09T16:46:31;33.70;99.90
11067;DHT22;29763;50.904;5.530;2023-07-09T16:48:57;33.50;99.90
11067;DHT22;29763;50.904;5.530;2023-07-09T16:51:25;33.60;99.90
11067;DHT22;29763;50.904;5.530;2023-07-09T16:53:50;33.30;99.90
11067;DHT22;29763;50.904;5.530;2023-07-09T16:56:16;33.20;99.90
11067;DHT22;29763;50.904;5.530;2023-07-09T16:58:49;33.30;99.90
11067;DHT22;29763;50.904;5.530;2023-07-09T17:01:15;33.40;99.90
11067;DHT22;29763;50.904;5.530;2023-07-09T17:03:41;32.80;99.90
11067;DHT22;29763;50.904;5.530;2023-07-09T17:06:08;32.70;99.90
11067;DHT22;29763;50.904;5.530;2023-07-09T17:08:33;32.50;99.90
11067;DHT22;29763;50.904;5.530;2023-07-09T17:11:01;32.40;99.90
11067;DHT22;29763;50.904;5.530;2023-07-09T17:13:28;32.50;99.90
11067;DHT22;29763;50.904;5.530;2023-07-09T17:16:03;32.60;99.90
11067;DHT22;29763;50.904;5.530;2023-07-09T17:18:31;32.60;99.90
11067;DHT22;29763;50.904;5.530;2023-07-09T17:20:59;32.50;99.90
11067;DHT22;29763;50.904;5.530;2023-07-09T17:23:26;32.50;99.90